createdAt,value
2022-08-04T00:02:24.807Z,79.02
2022-08-04T00:05:05.560Z,79.02
2022-08-04T00:07:50.560Z,78.90
2022-08-04T00:10:20.025Z,78.66
2022-08-04T00:12:52.027Z,78.93
2022-08-04T00:15:20.775Z,79.04
2022-08-04T00:18:03.431Z,79.30
2022-08-04T00:20:34.554Z,80.00
2022-08-04T00:23:02.538Z,80.09
2022-08-04T00:25:31.247Z,79.50
2022-08-04T00:28:04.135Z,79.88
2022-08-04T00:30:32.332Z,80.27
2022-08-04T00:33:00.610Z,79.59
2022-08-04T00:35:29.306Z,81.17
2022-08-04T00:37:57.333Z,81.37
2022-08-04T00:40:55.460Z,81.44
2022-08-04T00:44:23.199Z,81.60
2022-08-04T00:47:36.755Z,81.60
2022-08-04T00:50:42.012Z,81.81
2022-08-04T00:53:35.234Z,81.89
2022-08-04T00:56:31.741Z,82.27
2022-08-04T00:59:30.922Z,82.26
2022-08-04T01:02:08.035Z,82.10
2022-08-04T01:05:28.399Z,82.01
2022-08-04T01:08:48.279Z,82.11
2022-08-04T01:11:56.509Z,82.44
2022-08-04T01:15:05.236Z,82.55
2022-08-04T01:17:35.595Z,82.96
2022-08-04T01:20:20.574Z,82.95
2022-08-04T01:23:12.042Z,83.21
2022-08-04T01:26:43.272Z,83.23
2022-08-04T01:29:09.331Z,83.65
2022-08-04T01:32:05.377Z,83.40
2022-08-04T01:35:15.384Z,82.75
2022-08-04T01:38:20.098Z,83.31
2022-08-04T01:41:02.231Z,83.84
2022-08-04T01:43:32.062Z,84.00
2022-08-04T01:46:04.042Z,84.00
2022-08-04T01:48:32.583Z,84.02
2022-08-04T01:51:09.065Z,83.89
2022-08-04T01:53:42.854Z,84.00
2022-08-04T01:56:12.079Z,83.94
2022-08-04T01:58:41.051Z,83.82
2022-08-04T02:01:13.483Z,83.58
2022-08-04T02:04:20.825Z,83.65
2022-08-04T02:06:59.173Z,83.45
2022-08-04T02:10:01.792Z,83.63
2022-08-04T02:12:42.719Z,83.80
2022-08-04T02:15:27.756Z,84.01
2022-08-04T02:18:25.111Z,83.75
2022-08-04T02:21:01.073Z,83.46
2022-08-04T02:23:40.568Z,83.03
2022-08-04T02:26:22.155Z,83.06
2022-08-04T02:29:15.968Z,82.56
2022-08-04T02:31:57.779Z,82.76
2022-08-04T02:35:05.355Z,82.25
2022-08-04T02:37:33.778Z,82.03
2022-08-04T02:40:06.638Z,81.85
2022-08-04T02:42:34.008Z,82.29
2022-08-04T02:45:02.524Z,82.29
2022-08-04T02:48:29.252Z,82.57
2022-08-04T02:50:28.576Z,82.39
2022-08-04T02:53:03.097Z,82.19
2022-08-04T02:55:32.699Z,81.75
2022-08-04T02:58:04.043Z,81.29
2022-08-04T03:00:32.625Z,81.71
2022-08-04T03:03:20.594Z,81.72
2022-08-04T03:06:10.196Z,81.90
2022-08-04T03:09:40.152Z,81.80
2022-08-04T03:13:02.036Z,82.91
2022-08-04T03:15:59.889Z,82.61
2022-08-04T03:19:13.417Z,82.43
2022-08-04T03:22:14.610Z,82.95
2022-08-04T03:25:32.060Z,82.73
2022-08-04T03:28:27.085Z,83.04
2022-08-04T03:31:22.044Z,82.93
2022-08-04T03:34:26.165Z,82.66
2022-08-04T03:37:59.696Z,81.66
2022-08-04T03:40:51.279Z,82.64
2022-08-04T03:43:58.405Z,82.65
2022-08-04T03:46:43.069Z,82.37
2022-08-04T03:49:23.579Z,82.46
2022-08-04T03:53:01.777Z,82.37
2022-08-04T03:55:40.999Z,81.97
2022-08-04T03:58:45.831Z,81.82
2022-08-04T04:02:10.983Z,81.62
2022-08-04T04:04:56.564Z,80.79
2022-08-04T04:08:06.632Z,80.22
2022-08-04T04:10:53.353Z,79.71
2022-08-04T04:14:16.055Z,79.61
2022-08-04T04:17:01.530Z,78.90
2022-08-04T04:19:37.534Z,78.58
2022-08-04T04:22:38.202Z,78.23
2022-08-04T04:25:54.284Z,77.45
2022-08-04T04:29:38.800Z,77.60
2022-08-04T04:32:32.355Z,77.34
2022-08-04T04:35:14.756Z,77.29
2022-08-04T04:37:57.262Z,77.39
2022-08-04T04:41:04.532Z,77.40
2022-08-04T04:44:05.305Z,77.11
2022-08-04T04:46:50.583Z,77.06
2022-08-04T04:49:46.443Z,76.41
2022-08-04T04:52:53.287Z,76.41
2022-08-04T04:55:31.164Z,75.38
2022-08-04T04:58:01.302Z,75.14
2022-08-04T05:01:15.309Z,73.88
2022-08-04T05:04:15.894Z,73.38
2022-08-04T05:06:56.064Z,73.66
2022-08-04T05:10:15.266Z,72.52
2022-08-04T05:14:36.729Z,72.31
2022-08-04T05:16:17.634Z,71.38
2022-08-04T05:19:13.569Z,70.29
2022-08-04T05:21:50.559Z,69.64
2022-08-04T05:24:23.049Z,68.83
2022-08-04T05:27:02.549Z,68.16
2022-08-04T05:29:48.305Z,67.98
2022-08-04T05:32:17.316Z,67.50
2022-08-04T05:34:52.801Z,67.01
2022-08-04T05:37:23.759Z,66.81
2022-08-04T05:40:03.043Z,66.43
2022-08-04T05:42:39.424Z,66.67
2022-08-04T05:45:09.860Z,66.60
2022-08-04T05:47:38.202Z,66.59
2022-08-04T05:58:35.849Z,65.05
2022-08-04T06:20:00.220Z,65.45
2022-08-04T06:23:17.100Z,65.65
2022-08-04T06:26:01.561Z,65.22
2022-08-04T06:28:43.409Z,64.64
2022-08-04T06:32:30.443Z,64.90
2022-08-04T06:34:37.963Z,64.40
2022-08-04T06:37:07.942Z,63.77
2022-08-04T06:49:08.046Z,63.06
2022-08-04T06:52:19.820Z,62.80
2022-08-04T06:55:30.212Z,62.61
2022-08-04T06:58:04.089Z,61.75
2022-08-04T07:00:51.656Z,61.17
2022-08-04T07:03:21.261Z,61.01
2022-08-04T07:05:51.085Z,60.93
2022-08-04T07:08:19.646Z,60.87
2022-08-04T07:10:47.455Z,60.04
2022-08-04T07:13:16.920Z,59.99
2022-08-04T07:15:47.673Z,59.76
2022-08-04T07:18:15.874Z,59.52
2022-08-04T07:20:45.975Z,59.45
2022-08-04T07:23:17.033Z,58.70
2022-08-04T07:25:59.671Z,58.56
2022-08-04T07:28:42.000Z,59.16
2022-08-04T07:31:33.604Z,58.79
2022-08-04T07:34:20.670Z,58.89
2022-08-04T07:36:55.987Z,58.46
2022-08-04T07:39:29.551Z,58.20
2022-08-04T07:42:02.187Z,57.30
2022-08-04T07:44:36.927Z,57.24
2022-08-04T07:47:08.251Z,57.19
2022-08-04T07:49:55.134Z,56.81
2022-08-04T07:52:27.876Z,56.26
2022-08-04T07:54:55.811Z,55.70
2022-08-04T07:57:41.651Z,55.37
2022-08-04T08:00:14.418Z,55.32
2022-08-04T08:02:49.840Z,55.06
2022-08-04T08:05:19.967Z,54.95
2022-08-04T08:07:54.827Z,54.91
2022-08-04T08:10:25.354Z,54.53
2022-08-04T08:12:54.295Z,54.87
2022-08-04T08:15:22.787Z,54.57
2022-08-04T08:17:57.723Z,54.70
2022-08-04T08:20:31.657Z,54.90
2022-08-04T08:23:03.338Z,54.80
2022-08-04T08:25:33.927Z,54.42
2022-08-04T08:28:04.397Z,53.23
2022-08-04T08:30:34.245Z,53.40
2022-08-04T08:33:07.679Z,53.78
2022-08-04T08:36:07.820Z,53.71
2022-08-04T08:38:46.935Z,53.34
2022-08-04T08:41:24.027Z,53.54
2022-08-04T08:44:05.609Z,53.03
2022-08-04T08:47:08.132Z,53.06
2022-08-04T08:50:46.397Z,53.24
2022-08-04T08:54:06.254Z,52.71
2022-08-04T08:56:51.900Z,52.43
2022-08-04T09:00:41.457Z,52.29
2022-08-04T09:03:58.158Z,52.25
2022-08-04T09:07:01.105Z,51.58
2022-08-04T09:09:37.168Z,51.73
2022-08-04T09:12:29.045Z,50.79
2022-08-04T09:15:13.610Z,50.31
2022-08-04T09:17:59.740Z,49.94
2022-08-04T09:21:03.653Z,50.62
2022-08-04T09:23:41.015Z,50.33
2022-08-04T09:26:24.557Z,49.96
2022-08-04T09:29:35.397Z,49.76
2022-08-04T09:32:29.813Z,50.11
2022-08-04T09:35:34.166Z,50.21
2022-08-04T09:38:27.276Z,50.00
2022-08-04T09:41:49.112Z,50.29
2022-08-04T09:44:53.947Z,50.17
2022-08-04T09:48:05.790Z,49.91
2022-08-04T09:50:55.030Z,49.50
2022-08-04T09:54:06.971Z,49.80
2022-08-04T10:00:40.601Z,49.62
2022-08-04T10:03:20.363Z,49.29
2022-08-04T10:06:30.692Z,49.33
2022-08-04T10:09:34.394Z,49.06
2022-08-04T10:12:23.234Z,47.84
2022-08-04T10:15:59.635Z,48.20
2022-08-04T10:19:11.959Z,47.55
2022-08-04T10:22:29.454Z,47.28
2022-08-04T10:24:59.962Z,47.64
2022-08-04T10:27:52.102Z,46.98
2022-08-04T10:30:44.145Z,46.81
2022-08-04T10:41:20.506Z,44.00
2022-08-04T10:44:42.533Z,44.46
2022-08-04T10:47:22.071Z,44.61
2022-08-04T10:53:20.149Z,43.01
2022-08-04T10:56:45.298Z,42.45
2022-08-04T11:04:26.958Z,41.85
2022-08-04T11:07:39.116Z,40.79
2022-08-04T11:10:10.116Z,41.41
2022-08-04T11:22:10.053Z,44.23
2022-08-04T11:25:14.017Z,43.74
2022-08-04T11:59:59.532Z,46.01
2022-08-04T12:15:50.899Z,45.49
2022-08-04T12:20:01.344Z,44.53
2022-08-04T12:27:49.161Z,39.03
2022-08-04T12:30:58.299Z,38.55
2022-08-04T12:33:41.389Z,40.81
2022-08-04T12:36:49.576Z,45.66
2022-08-04T12:39:19.922Z,59.95
2022-08-04T12:42:18.258Z,70.54
2022-08-04T12:44:53.833Z,77.32
2022-08-04T12:47:36.371Z,79.66
2022-08-04T12:50:09.309Z,81.54
2022-08-04T12:53:02.131Z,83.27
2022-08-04T12:55:34.804Z,85.75
2022-08-04T12:58:13.495Z,86.59
2022-08-04T13:02:06.653Z,87.49
2022-08-04T13:04:11.441Z,85.76
2022-08-04T13:06:41.176Z,83.88
2022-08-04T13:09:19.252Z,80.65
2022-08-04T13:12:20.455Z,80.30
2022-08-04T13:14:53.715Z,78.33
2022-08-04T13:17:21.143Z,74.11
2022-08-04T13:19:55.835Z,70.79
2022-08-04T13:22:27.262Z,66.23
2022-08-04T13:26:40.657Z,65.64
2022-08-04T13:27:55.287Z,68.11
2022-08-04T13:30:28.165Z,66.34
2022-08-04T13:33:01.959Z,61.15
2022-08-04T13:35:55.986Z,56.57
2022-08-04T13:39:19.260Z,51.42
2022-08-04T13:41:56.948Z,46.55
2022-08-04T13:48:32.579Z,45.94
2022-08-04T13:51:09.844Z,46.01
2022-08-04T13:53:41.795Z,47.54
2022-08-04T13:56:10.591Z,52.96
2022-08-04T13:58:47.501Z,58.19
2022-08-04T14:01:35.648Z,59.83
2022-08-04T14:04:24.916Z,64.49
2022-08-04T14:07:01.426Z,64.28
2022-08-04T14:09:34.805Z,62.04
2022-08-04T14:12:46.105Z,62.34
2022-08-04T14:15:04.544Z,61.79
2022-08-04T14:17:31.870Z,63.70
2022-08-04T14:20:02.097Z,65.95
2022-08-04T14:22:35.356Z,73.58
2022-08-04T14:25:15.103Z,75.40
2022-08-04T14:27:57.334Z,78.29
2022-08-04T14:31:10.939Z,80.23
2022-08-04T14:34:01.662Z,82.13
2022-08-04T14:41:04.553Z,87.56
2022-08-04T14:43:43.372Z,88.71
2022-08-04T14:46:13.071Z,90.08
2022-08-04T14:50:18.018Z,91.25
2022-08-04T15:04:50.308Z,92.88
2022-08-04T15:07:18.877Z,92.48
2022-08-04T15:10:26.351Z,91.70
2022-08-04T15:12:56.331Z,90.97
2022-08-04T15:57:01.465Z,73.52
2022-08-04T16:01:28.904Z,67.42
2022-08-04T16:08:20.101Z,64.94
2022-08-04T16:10:51.268Z,64.73
2022-08-04T17:05:10.048Z,56.02
2022-08-04T17:14:05.742Z,62.40
2022-08-04T17:36:16.885Z,71.92
2022-08-04T17:38:59.393Z,71.02
2022-08-04T17:41:38.955Z,73.05
2022-08-04T17:44:08.993Z,75.42
2022-08-04T17:46:48.235Z,76.18
2022-08-04T17:49:23.032Z,77.11
2022-08-04T17:52:05.265Z,76.85
2022-08-04T17:54:40.635Z,79.15
2022-08-04T17:57:24.933Z,78.92
2022-08-04T18:00:02.458Z,80.14
2022-08-04T18:02:38.714Z,81.65
2022-08-04T18:05:11.638Z,82.31
2022-08-04T18:19:48.095Z,79.60
2022-08-04T18:22:28.005Z,80.23
2022-08-04T18:24:58.291Z,81.01
2022-08-04T18:27:30.210Z,80.68
2022-08-04T18:30:34.405Z,79.57
2022-08-04T18:33:10.463Z,79.17
2022-08-04T18:36:33.320Z,79.43
2022-08-04T18:38:33.633Z,81.04
2022-08-04T18:41:03.133Z,80.85
2022-08-04T18:43:40.954Z,81.14
2022-08-04T18:46:14.577Z,80.73
2022-08-04T18:48:52.127Z,80.41
2022-08-04T18:51:31.104Z,81.37
2022-08-04T18:54:00.393Z,80.56
2022-08-04T18:56:32.572Z,80.06
2022-08-04T18:59:04.908Z,80.29
2022-08-04T19:02:13.359Z,80.43
2022-08-04T19:04:34.194Z,80.34
2022-08-04T19:07:28.791Z,83.22
2022-08-04T19:09:58.163Z,83.94
2022-08-04T19:16:45.896Z,84.59
2022-08-04T19:26:05.586Z,85.71
2022-08-04T19:28:38.929Z,86.44
2022-08-04T19:31:09.825Z,86.92
2022-08-04T19:33:58.466Z,86.83
2022-08-04T19:36:31.467Z,86.75
2022-08-04T19:39:09.307Z,87.06
2022-08-04T19:45:07.271Z,87.32
2022-08-04T19:48:44.680Z,87.04
2022-08-04T19:51:30.571Z,86.98
2022-08-04T19:54:02.953Z,87.64
2022-08-04T19:56:40.930Z,88.00
2022-08-04T19:59:11.097Z,88.56
2022-08-04T20:01:45.130Z,88.46
2022-08-04T20:04:15.698Z,88.42
2022-08-04T20:10:38.331Z,87.92
2022-08-04T20:14:15.666Z,87.33
2022-08-04T20:18:07.716Z,87.19
2022-08-04T20:20:45.735Z,87.10
2022-08-04T20:23:14.988Z,86.59
2022-08-04T20:26:53.326Z,87.17
2022-08-04T20:29:40.309Z,88.00
2022-08-04T20:32:26.967Z,88.48
2022-08-04T20:35:15.911Z,89.53
2022-08-04T20:37:56.921Z,89.73
2022-08-04T20:40:31.167Z,89.63
2022-08-04T20:43:00.174Z,89.18
2022-08-04T20:45:56.504Z,89.10
2022-08-04T20:48:19.257Z,88.18
2022-08-04T20:50:57.448Z,87.53
2022-08-04T20:56:30.884Z,89.49
2022-08-04T20:59:07.774Z,89.99
2022-08-04T21:01:45.323Z,90.03
2022-08-04T21:04:42.038Z,90.18
2022-08-04T21:07:19.136Z,90.09
2022-08-04T21:09:49.950Z,89.59
2022-08-04T21:12:27.726Z,88.85
2022-08-04T21:15:15.773Z,89.57
2022-08-04T21:17:58.244Z,89.69
2022-08-04T21:20:39.522Z,90.22
2022-08-04T21:23:12.207Z,90.99
2022-08-04T21:25:42.888Z,91.27
2022-08-04T21:28:12.898Z,91.24
2022-08-04T21:30:52.664Z,91.28
2022-08-04T21:33:49.815Z,91.03
2022-08-04T21:36:16.110Z,91.02
2022-08-04T21:38:51.255Z,91.01
2022-08-04T21:41:24.395Z,91.03
2022-08-04T21:43:54.621Z,91.10
2022-08-04T21:46:23.756Z,90.28
2022-08-04T21:48:52.440Z,91.03
2022-08-04T21:52:00.672Z,91.31
2022-08-04T21:54:17.202Z,90.64
2022-08-04T21:56:51.570Z,90.91
2022-08-04T21:59:23.654Z,91.05
2022-08-04T22:02:01.695Z,91.12
2022-08-04T22:04:31.133Z,91.06
2022-08-04T22:07:02.987Z,91.87
2022-08-04T22:09:37.764Z,91.75
2022-08-04T22:12:12.311Z,91.85
2022-08-04T22:14:41.580Z,91.75
2022-08-04T22:17:18.428Z,91.45
2022-08-04T22:19:55.039Z,92.09
2022-08-04T22:22:29.422Z,91.93
2022-08-04T22:25:12.623Z,92.19
2022-08-04T22:28:02.929Z,90.77
2022-08-04T22:30:36.772Z,89.68
2022-08-04T22:33:08.939Z,89.96
2022-08-04T22:35:48.895Z,91.15
2022-08-04T22:38:29.103Z,90.89
2022-08-04T22:41:12.913Z,89.98
2022-08-04T22:43:42.626Z,90.61
2022-08-04T22:46:28.040Z,91.21
2022-08-04T22:48:57.298Z,90.69
2022-08-04T22:51:27.118Z,91.51
2022-08-04T22:53:56.038Z,91.69
2022-08-04T22:56:38.553Z,92.38
2022-08-04T22:59:10.016Z,92.30
2022-08-04T23:02:00.506Z,91.96
2022-08-04T23:04:32.631Z,92.03
2022-08-04T23:07:08.960Z,92.11
2022-08-04T23:09:49.590Z,92.68
2022-08-04T23:12:26.254Z,92.68
2022-08-04T23:14:58.010Z,92.42
2022-08-04T23:17:28.874Z,92.12
2022-08-04T23:19:59.638Z,91.95
2022-08-04T23:22:37.419Z,92.09
2022-08-04T23:25:16.372Z,92.49
2022-08-04T23:27:51.669Z,91.84
2022-08-04T23:30:24.875Z,91.74
2022-08-04T23:32:59.117Z,91.37
2022-08-04T23:35:28.306Z,91.70
2022-08-04T23:38:00.108Z,92.56
2022-08-04T23:40:50.368Z,93.25
2022-08-04T23:43:19.501Z,93.38
2022-08-04T23:46:06.386Z,93.51
2022-08-04T23:48:38.838Z,92.94
2022-08-04T23:51:15.546Z,92.87
2022-08-04T23:54:02.507Z,92.72
2022-08-04T23:56:34.436Z,93.00
2022-08-04T23:59:04.532Z,93.53
